Time;durP1;ratioP1;P1;durP2;ratioP2;P2;SDS_P1;SDS_P2;PMS_P1;PMS_P2;Temp;Humidity;BMP_temperature;BMP_pressure;BME280_temperature;BME280_humidity;BME280_pressure;Samples;Min_cycle;Max_cycle;Signal;HPM_P1;HPM_P2
2023/08/23 00:03:00;;;;;;;6.57;2.78;;;25.30;93.00;;;;;;9663388;23;20184;-89
2023/08/23 00:06:47;;;;;;;5.13;2.53;;;25.30;93.10;;;;;;9662778;23;20191;-89
2023/08/23 00:10:32;;;;;;;3.03;2.45;;;25.20;93.20;;;;;;9663166;23;20654;-89
2023/08/23 00:14:18;;;;;;;5.22;2.70;;;25.20;93.20;;;;;;9662191;23;20496;-89
2023/08/23 00:18:04;;;;;;;4.50;2.55;;;25.10;93.20;;;;;;9662519;23;20571;-90
2023/08/23 00:21:49;;;;;;;6.60;2.78;;;25.00;93.40;;;;;;9662639;23;20184;-89
2023/08/23 00:25:35;;;;;;;7.68;2.90;;;25.00;93.40;;;;;;9662825;23;20184;-90
2023/08/23 00:29:22;;;;;;;4.93;2.30;;;25.00;93.50;;;;;;9662665;23;20189;-89
2023/08/23 00:33:07;;;;;;;5.47;2.78;;;24.90;93.40;;;;;;9662978;23;20485;-90
2023/08/23 00:36:53;;;;;;;6.15;3.03;;;24.90;93.40;;;;;;9662464;23;20177;-88
2023/08/23 00:40:38;;;;;;;5.70;2.50;;;24.80;93.50;;;;;;9689163;23;20153;-89
2023/08/23 00:44:24;;;;;;;5.63;2.83;;;24.70;93.50;;;;;;9662703;23;20168;-89
2023/08/23 00:48:12;;;;;;;5.78;2.60;;;24.70;93.60;;;;;;9662030;23;20189;-89
2023/08/23 00:51:57;;;;;;;5.45;2.75;;;24.70;93.60;;;;;;9662355;23;20157;-89
2023/08/23 00:55:43;;;;;;;4.25;2.55;;;24.60;93.70;;;;;;9662161;23;20184;-89
2023/08/23 00:59:35;;;;;;;3.33;2.65;;;24.50;93.70;;;;;;9661772;23;20196;-90
2023/08/23 01:03:21;;;;;;;5.13;2.85;;;24.50;93.80;;;;;;9661853;23;20226;-89
2023/08/23 01:07:13;;;;;;;3.92;2.80;;;24.40;94.00;;;;;;9661960;23;20173;-90
2023/08/23 01:11:18;;;;;;;3.92;2.70;;;24.40;94.00;;;;;;9661725;23;20185;-89
2023/08/23 01:15:14;;;;;;;6.60;2.70;;;24.40;94.10;;;;;;9662051;23;20145;-89
2023/08/23 01:19:16;;;;;;;4.10;2.33;;;24.30;94.10;;;;;;9661630;23;20183;-89
2023/08/23 01:23:16;;;;;;;3.45;2.67;;;24.30;94.20;;;;;;9661827;23;20523;-89
2023/08/23 01:27:01;;;;;;;5.70;2.80;;;24.20;94.20;;;;;;9661481;23;20692;-89
2023/08/23 01:30:49;;;;;;;7.03;2.63;;;24.20;94.40;;;;;;9661566;23;20574;-89
2023/08/23 01:34:40;;;;;;;5.10;3.10;;;24.20;94.40;;;;;;9661641;23;20162;-89
2023/08/23 01:38:27;;;;;;;5.32;2.67;;;24.10;94.50;;;;;;9661036;23;20232;-89
2023/08/23 01:42:13;;;;;;;5.93;2.83;;;24.10;94.60;;;;;;9661488;23;20166;-89
2023/08/23 01:45:59;;;;;;;7.95;2.72;;;24.00;94.70;;;;;;9661341;23;20230;-89
2023/08/23 01:49:44;;;;;;;3.88;2.42;;;24.00;94.90;;;;;;9661229;23;20242;-90
2023/08/23 01:53:30;;;;;;;3.40;2.50;;;24.00;95.00;;;;;;9661583;23;20166;-89
2023/08/23 01:57:16;;;;;;;6.25;2.70;;;23.90;95.00;;;;;;9661662;23;20177;-90
2023/08/23 02:01:01;;;;;;;3.13;2.60;;;23.90;95.10;;;;;;9661485;23;20161;-89
2023/08/23 02:04:47;;;;;;;7.40;2.75;;;23.90;95.10;;;;;;9661550;23;20164;-89
2023/08/23 02:08:33;;;;;;;3.88;2.80;;;23.80;95.10;;;;;;9661419;23;20197;-89
2023/08/23 02:12:19;;;;;;;4.32;3.10;;;23.80;95.20;;;;;;9661186;23;20154;-89
2023/08/23 02:16:05;;;;;;;4.57;3.00;;;23.70;95.20;;;;;;9687731;23;20196;-90
2023/08/23 02:19:50;;;;;;;6.10;3.03;;;23.70;95.30;;;;;;9661337;23;20158;-89
2023/08/23 02:23:36;;;;;;;4.72;2.90;;;23.60;95.40;;;;;;9661431;23;20639;-89
2023/08/23 02:27:21;;;;;;;3.92;2.65;;;23.50;95.40;;;;;;9660694;23;20181;-89
2023/08/23 02:31:07;;;;;;;4.40;2.75;;;23.50;95.50;;;;;;9660688;23;20552;-89
2023/08/23 02:34:53;;;;;;;6.05;2.60;;;23.50;95.40;;;;;;9661166;23;20547;-89
2023/08/23 02:38:38;;;;;;;6.47;2.83;;;23.40;95.40;;;;;;9660929;23;20177;-89
2023/08/23 02:42:24;;;;;;;4.15;2.47;;;23.40;95.40;;;;;;9660888;23;20157;-89
2023/08/23 02:46:09;;;;;;;5.43;2.80;;;23.30;95.50;;;;;;9660619;23;20181;-89
2023/08/23 02:49:55;;;;;;;4.65;2.70;;;23.30;95.60;;;;;;9660385;23;20631;-89
2023/08/23 02:53:41;;;;;;;4.25;2.80;;;23.20;95.70;;;;;;9660726;23;20153;-89
2023/08/23 02:57:26;;;;;;;4.30;2.80;;;23.20;95.70;;;;;;9687490;23;20694;-89
2023/08/23 03:01:12;;;;;;;4.07;3.10;;;23.20;95.80;;;;;;9660495;23;20216;-88
2023/08/23 03:04:58;;;;;;;3.45;2.50;;;23.20;95.90;;;;;;9660955;23;20165;-89
2023/08/23 03:08:43;;;;;;;5.10;3.05;;;23.20;96.00;;;;;;9660597;23;20212;-89
2023/08/23 03:12:29;;;;;;;4.20;2.92;;;23.10;96.00;;;;;;9660468;23;20180;-88
2023/08/23 03:16:15;;;;;;;4.10;2.97;;;23.10;96.10;;;;;;9687514;23;20193;-89
2023/08/23 03:20:00;;;;;;;5.28;2.70;;;23.00;96.20;;;;;;9660530;23;20316;-89
2023/08/23 03:23:46;;;;;;;4.65;2.85;;;23.00;96.20;;;;;;9660645;23;20157;-89
2023/08/23 03:27:31;;;;;;;4.38;2.90;;;23.00;96.30;;;;;;9688438;23;20173;-89
2023/08/23 03:31:17;;;;;;;3.63;2.88;;;22.90;96.30;;;;;;9663589;23;20189;-89
2023/08/23 03:35:03;;;;;;;3.97;2.67;;;22.90;96.40;;;;;;9690211;23;20173;-88
2023/08/23 03:38:48;;;;;;;4.45;3.10;;;22.90;96.40;;;;;;9663209;23;20183;-89
2023/08/23 03:42:34;;;;;;;3.83;2.67;;;22.80;96.40;;;;;;9663511;23;20169;-90
2023/08/23 03:46:26;;;;;;;5.55;3.05;;;22.70;96.40;;;;;;9663356;23;20188;-88
2023/08/23 03:50:12;;;;;;;4.50;2.90;;;22.70;96.50;;;;;;9663551;23;20208;-89
2023/08/23 03:53:58;;;;;;;3.67;2.83;;;22.60;96.60;;;;;;9662936;23;20245;-88
2023/08/23 03:57:43;;;;;;;3.00;2.70;;;22.60;96.60;;;;;;9662655;23;20173;-89
2023/08/23 04:01:29;;;;;;;4.20;2.85;;;22.60;96.50;;;;;;9663040;23;20492;-88
2023/08/23 04:05:14;;;;;;;4.22;3.00;;;22.50;96.50;;;;;;9662967;23;20207;-87
2023/08/23 04:09:00;;;;;;;5.40;2.85;;;22.50;96.70;;;;;;9663106;23;20620;-88
2023/08/23 04:12:46;;;;;;;4.75;2.78;;;22.40;96.70;;;;;;9662658;23;20535;-89
2023/08/23 04:16:32;;;;;;;6.22;3.20;;;22.40;96.80;;;;;;9663767;23;20192;-91
2023/08/23 04:20:17;;;;;;;7.22;2.90;;;22.30;96.70;;;;;;9664406;23;20162;-91
2023/08/23 04:24:03;;;;;;;4.05;2.88;;;22.40;96.80;;;;;;9664402;23;20167;-91
2023/08/23 04:27:49;;;;;;;6.50;3.28;;;22.40;96.80;;;;;;9663597;23;20177;-91
2023/08/23 04:31:34;;;;;;;5.97;3.35;;;22.40;96.80;;;;;;9663674;23;20161;-90
2023/08/23 04:35:20;;;;;;;4.57;2.88;;;22.40;96.90;;;;;;9663637;23;20161;-89
2023/08/23 04:39:06;;;;;;;4.63;2.97;;;22.40;97.00;;;;;;9662265;23;20153;-91
2023/08/23 04:42:52;;;;;;;6.28;3.40;;;22.40;97.00;;;;;;9663676;23;20168;-90
2023/08/23 04:46:37;;;;;;;5.55;3.70;;;22.30;97.00;;;;;;9662939;23;20691;-90
2023/08/23 04:50:23;;;;;;;7.00;3.28;;;22.30;97.00;;;;;;9663564;23;20181;-89
2023/08/23 04:54:08;;;;;;;4.45;3.17;;;22.20;97.10;;;;;;9664388;23;20153;-90
2023/08/23 04:57:54;;;;;;;4.47;3.22;;;22.20;97.20;;;;;;9662394;23;20177;-89
2023/08/23 05:01:40;;;;;;;4.00;3.00;;;22.20;97.30;;;;;;9660849;23;20625;-89
2023/08/23 05:05:25;;;;;;;7.55;3.03;;;22.20;97.30;;;;;;9661951;23;20640;-89
2023/08/23 05:09:11;;;;;;;5.53;3.20;;;22.10;97.40;;;;;;9661851;23;20192;-89
2023/08/23 05:12:59;;;;;;;8.85;3.35;;;22.10;97.40;;;;;;9661994;23;20185;-89
2023/08/23 05:16:45;;;;;;;4.57;3.45;;;22.10;97.60;;;;;;9661999;23;20197;-89
2023/08/23 05:20:30;;;;;;;6.68;3.08;;;22.10;97.70;;;;;;9661999;23;20219;-89
2023/08/23 05:24:16;;;;;;;6.88;3.72;;;22.00;97.70;;;;;;9662089;23;20173;-89
2023/08/23 05:28:02;;;;;;;4.88;3.70;;;22.10;97.80;;;;;;9662277;23;20195;-90
2023/08/23 05:31:47;;;;;;;6.70;3.70;;;22.00;98.00;;;;;;9662281;23;20145;-89
2023/08/23 05:35:33;;;;;;;6.82;3.40;;;22.00;98.00;;;;;;9663014;23;20173;-89
2023/08/23 05:39:19;;;;;;;7.40;3.20;;;22.00;98.10;;;;;;9662624;23;20502;-91
2023/08/23 05:43:06;;;;;;;3.83;3.25;;;22.00;98.20;;;;;;9663548;23;20215;-91
2023/08/23 05:46:52;;;;;;;4.28;3.67;;;22.00;98.20;;;;;;9663419;23;20177;-91
2023/08/23 05:50:37;;;;;;;4.85;3.33;;;22.00;98.20;;;;;;9663717;23;20271;-91
2023/08/23 05:54:24;;;;;;;4.57;3.25;;;22.00;98.20;;;;;;9663791;23;20207;-91
2023/08/23 05:58:09;;;;;;;4.07;3.53;;;22.00;98.20;;;;;;9663401;23;20181;-92
2023/08/23 06:01:55;;;;;;;6.97;3.40;;;22.00;98.20;;;;;;9662349;23;20643;-90
2023/08/23 06:05:42;;;;;;;6.47;3.42;;;22.00;98.20;;;;;;9662106;23;20821;-90
2023/08/23 06:09:27;;;;;;;4.32;3.55;;;22.00;98.20;;;;;;9662137;23;20185;-90
2023/08/23 06:13:13;;;;;;;7.32;3.50;;;22.10;98.20;;;;;;9662055;23;20164;-90
2023/08/23 06:16:59;;;;;;;6.05;3.55;;;22.00;98.20;;;;;;9662073;23;20258;-91
2023/08/23 06:20:45;;;;;;;5.57;3.25;;;22.10;98.20;;;;;;9662053;23;20162;-91
2023/08/23 06:24:31;;;;;;;3.85;3.33;;;22.10;98.20;;;;;;9662158;23;20161;-91
2023/08/23 06:28:16;;;;;;;5.10;3.35;;;22.10;98.20;;;;;;9661893;23;20195;-90
2023/08/23 06:32:02;;;;;;;5.00;3.28;;;22.10;98.20;;;;;;9662111;23;20157;-90
2023/08/23 06:35:48;;;;;;;6.72;3.28;;;22.10;98.10;;;;;;9661880;23;20177;-91
2023/08/23 06:39:33;;;;;;;7.10;3.88;;;22.20;98.20;;;;;;9661727;23;20168;-90
2023/08/23 06:43:19;;;;;;;7.07;4.68;;;22.30;98.70;;;;;;9660837;23;20188;-90
2023/08/23 06:47:05;;;;;;;5.90;3.88;;;22.40;98.70;;;;;;9661292;23;20185;-90
2023/08/23 06:50:51;;;;;;;6.50;3.88;;;22.40;98.50;;;;;;9661169;23;20184;-90
2023/08/23 06:54:36;;;;;;;9.18;3.92;;;22.50;98.50;;;;;;9660488;23;20593;-90
2023/08/23 06:58:22;;;;;;;6.85;4.50;;;22.60;98.50;;;;;;9660482;23;20532;-88
2023/08/23 07:02:07;;;;;;;5.75;4.07;;;22.70;98.60;;;;;;9661110;23;20161;-90
2023/08/23 07:05:53;;;;;;;7.45;3.78;;;22.80;98.00;;;;;;9663799;23;20184;-90
2023/08/23 07:09:39;;;;;;;7.78;4.43;;;22.80;97.90;;;;;;9663299;23;20185;-90
2023/08/23 07:13:25;;;;;;;6.32;4.18;;;22.90;98.10;;;;;;9690404;23;20153;-89
2023/08/23 07:17:11;;;;;;;11.15;5.88;;;23.10;98.10;;;;;;9663689;23;20189;-90
2023/08/23 07:20:57;;;;;;;8.95;4.10;;;23.10;97.30;;;;;;9663789;23;20619;-89
2023/08/23 07:24:43;;;;;;;7.68;3.70;;;23.20;97.00;;;;;;9663731;23;20157;-90
2023/08/23 07:28:29;;;;;;;8.43;3.67;;;23.40;97.30;;;;;;9688251;23;20181;-90
2023/08/23 07:32:15;;;;;;;9.68;3.53;;;23.40;95.60;;;;;;9664001;23;20158;-89
2023/08/23 07:36:01;;;;;;;5.45;3.50;;;23.60;95.60;;;;;;9664181;23;20177;-89
2023/08/23 07:39:47;;;;;;;6.57;3.50;;;23.70;96.40;;;;;;9663534;23;20172;-89
2023/08/23 07:43:32;;;;;;;6.88;3.40;;;23.80;96.60;;;;;;9691322;23;20663;-90
2023/08/23 07:47:18;;;;;;;5.30;3.22;;;23.90;96.00;;;;;;9664325;23;20203;-90
2023/08/23 07:51:05;;;;;;;8.55;3.45;;;24.00;95.10;;;;;;9663463;23;20192;-89
2023/08/23 07:54:51;;;;;;;4.03;2.72;;;24.10;93.80;;;;;;9663679;23;20157;-90
2023/08/23 07:58:38;;;;;;;5.80;2.65;;;24.20;93.00;;;;;;9663490;23;20263;-89
2023/08/23 08:02:24;;;;;;;4.85;2.88;;;24.10;91.30;;;;;;9663466;23;20168;-90
2023/08/23 08:06:10;;;;;;;4.30;2.88;;;24.20;92.10;;;;;;9690357;23;20173;-90
2023/08/23 08:09:56;;;;;;;6.85;3.00;;;24.40;92.80;;;;;;9663408;23;20185;-88
2023/08/23 08:13:41;;;;;;;9.35;3.33;;;24.50;92.70;;;;;;9663064;23;20153;-90
2023/08/23 08:17:27;;;;;;;7.53;3.30;;;24.60;92.70;;;;;;9663328;23;20189;-90
2023/08/23 08:21:12;;;;;;;4.55;2.83;;;24.80;92.40;;;;;;9663428;23;20239;-90
2023/08/23 08:24:58;;;;;;;3.72;2.60;;;24.90;92.80;;;;;;9663130;23;20162;-90
2023/08/23 08:28:45;;;;;;;4.60;2.60;;;25.00;91.80;;;;;;9663865;23;20239;-89
2023/08/23 08:32:31;;;;;;;4.07;2.63;;;25.00;88.90;;;;;;9662748;23;20165;-90
2023/08/23 08:36:16;;;;;;;5.38;2.70;;;25.10;90.20;;;;;;9661941;23;20177;-90
2023/08/23 08:40:03;;;;;;;6.32;2.90;;;25.20;88.80;;;;;;9662766;23;20161;-89
2023/08/23 08:43:49;;;;;;;4.47;2.80;;;25.20;87.90;;;;;;9662042;23;20240;-90
2023/08/23 08:47:35;;;;;;;7.32;2.88;;;25.30;88.50;;;;;;9661783;23;20548;-89
2023/08/23 08:51:21;;;;;;;7.57;2.95;;;25.20;86.60;;;;;;9662711;23;20208;-89
2023/08/23 08:55:11;;;;;;;7.30;2.50;;;25.30;89.10;;;;;;9663053;23;20542;-90
2023/08/23 08:58:59;;;;;;;6.97;2.63;;;25.40;86.90;;;;;;9662700;23;20148;-90
2023/08/23 09:02:45;;;;;;;7.30;2.88;;;25.50;86.50;;;;;;9662273;23;20188;-90
2023/08/23 09:06:32;;;;;;;8.35;3.13;;;25.50;84.00;;;;;;9662234;23;20180;-90
2023/08/23 09:10:18;;;;;;;5.45;2.95;;;25.50;85.00;;;;;;9662591;23;20185;-91
2023/08/23 09:14:15;;;;;;;7.50;2.67;;;25.50;85.40;;;;;;9662839;23;20160;-89
2023/08/23 09:18:01;;;;;;;5.85;2.88;;;25.70;87.00;;;;;;9687529;23;20207;-90
2023/08/23 09:21:50;;;;;;;5.43;2.58;;;25.90;86.20;;;;;;9662222;23;20157;-90
2023/08/23 09:25:36;;;;;;;4.75;2.60;;;25.90;84.10;;;;;;9662524;23;20174;-90
2023/08/23 09:29:23;;;;;;;5.72;3.00;;;25.90;84.70;;;;;;9662519;23;20620;-90
2023/08/23 09:33:10;;;;;;;7.30;2.92;;;25.70;85.20;;;;;;9662735;23;20157;-90
2023/08/23 09:37:05;;;;;;;4.97;2.97;;;25.80;83.80;;;;;;9661978;23;20181;-90
2023/08/23 09:40:51;;;;;;;5.00;3.05;;;25.90;84.40;;;;;;9662675;23;20211;-90
2023/08/23 09:44:41;;;;;;;7.32;3.10;;;26.10;84.30;;;;;;9662488;23;20158;-90
2023/08/23 09:48:31;;;;;;;7.40;2.90;;;26.20;85.40;;;;;;9662423;23;20272;-89
2023/08/23 09:52:19;;;;;;;4.47;2.72;;;26.40;84.10;;;;;;9662674;23;20150;-90
2023/08/23 09:56:06;;;;;;;3.70;2.63;;;26.50;85.10;;;;;;9662933;23;20193;-90
2023/08/23 09:59:52;;;;;;;7.32;3.20;;;26.50;84.00;;;;;;9661978;23;20164;-90
2023/08/23 10:03:39;;;;;;;7.75;3.20;;;26.70;85.70;;;;;;9662447;23;20161;-90
2023/08/23 10:07:25;;;;;;;5.97;3.65;;;26.70;84.00;;;;;;9663817;23;20208;-90
2023/08/23 10:11:11;;;;;;;5.60;3.45;;;26.80;82.00;;;;;;9662339;23;20185;-90
2023/08/23 10:14:59;;;;;;;6.10;3.00;;;26.70;81.40;;;;;;9689025;23;20145;-90
2023/08/23 10:18:45;;;;;;;6.22;3.47;;;26.60;81.90;;;;;;9661259;23;20734;-89
2023/08/23 10:22:31;;;;;;;5.20;3.20;;;26.70;82.80;;;;;;9663238;23;20153;-90
2023/08/23 10:26:21;;;;;;;6.53;3.45;;;26.70;83.10;;;;;;9663085;23;20184;-90
2023/08/23 10:30:07;;;;;;;5.68;2.97;;;26.90;81.30;;;;;;9689832;23;20169;-89
2023/08/23 10:33:54;;;;;;;7.90;3.25;;;27.00;80.60;;;;;;9663158;23;20158;-90
2023/08/23 10:37:40;;;;;;;8.38;3.20;;;26.90;80.80;;;;;;9664491;23;20173;-89
2023/08/23 10:41:26;;;;;;;5.68;3.40;;;27.10;81.90;;;;;;9666209;23;20679;-90
2023/08/23 10:45:14;;;;;;;7.00;3.35;;;27.20;82.80;;;;;;9666125;23;20633;-89
2023/08/23 10:49:00;;;;;;;5.40;3.10;;;27.40;81.90;;;;;;9666173;23;20191;-89
2023/08/23 10:52:49;;;;;;;6.40;3.60;;;27.40;81.00;;;;;;9666286;23;20210;-90
2023/08/23 10:56:34;;;;;;;9.45;3.40;;;27.50;80.50;;;;;;9666200;23;20177;-90
2023/08/23 11:00:20;;;;;;;11.65;4.30;;;27.50;82.10;;;;;;9665994;23;20215;-91
2023/08/23 11:04:07;;;;;;;7.90;4.07;;;27.70;81.80;;;;;;9666067;23;20172;-89
2023/08/23 11:07:52;;;;;;;10.23;3.70;;;27.40;80.70;;;;;;9665877;23;20187;-91
2023/08/23 11:11:38;;;;;;;9.13;3.65;;;27.30;81.40;;;;;;9665705;23;20153;-91
2023/08/23 11:15:28;;;;;;;9.07;3.53;;;27.40;81.60;;;;;;9665395;23;20158;-90
2023/08/23 11:19:14;;;;;;;8.50;3.40;;;27.80;79.70;;;;;;9663885;23;20158;-90
2023/08/23 11:23:00;;;;;;;9.25;3.45;;;28.20;80.90;;;;;;9664771;23;20161;-91
2023/08/23 11:26:45;;;;;;;8.10;3.55;;;28.40;78.10;;;;;;9663663;23;20192;-91
2023/08/23 11:30:35;;;;;;;6.20;3.40;;;28.50;75.80;;;;;;9664807;23;20189;-91
2023/08/23 11:34:21;;;;;;;5.85;3.38;;;28.60;75.10;;;;;;9663300;23;20146;-91
2023/08/23 11:38:08;;;;;;;6.80;3.63;;;28.80;72.50;;;;;;9664521;23;20255;-91
2023/08/23 11:41:58;;;;;;;5.45;3.15;;;28.60;72.80;;;;;;9665344;23;20161;-90
2023/08/23 11:45:44;;;;;;;5.28;3.38;;;28.60;75.00;;;;;;9665061;23;20181;-91
2023/08/23 11:49:29;;;;;;;7.28;3.00;;;28.80;76.20;;;;;;9664513;23;20189;-90
2023/08/23 11:53:15;;;;;;;4.18;3.15;;;29.00;76.40;;;;;;9664878;23;20153;-90
2023/08/23 11:57:01;;;;;;;5.20;3.22;;;29.00;75.20;;;;;;9664698;23;20176;-91
2023/08/23 12:00:48;;;;;;;6.53;3.00;;;29.10;74.70;;;;;;9664884;23;20238;-91
2023/08/23 12:04:34;;;;;;;6.20;3.17;;;29.20;74.00;;;;;;9667581;23;20240;-90
2023/08/23 12:08:20;;;;;;;5.88;3.40;;;29.20;73.00;;;;;;9664542;23;20722;-90
2023/08/23 12:12:06;;;;;;;11.88;3.65;;;29.10;73.40;;;;;;9664600;23;20872;-90
2023/08/23 12:15:52;;;;;;;3.40;2.80;;;29.20;74.30;;;;;;9664034;23;20280;-91
2023/08/23 12:19:37;;;;;;;5.90;3.30;;;29.20;72.70;;;;;;9664380;23;20145;-91
2023/08/23 12:23:23;;;;;;;6.68;3.70;;;29.10;72.10;;;;;;9691001;23;20156;-91
2023/08/23 12:27:09;;;;;;;5.38;3.20;;;29.20;72.00;;;;;;9691187;23;20197;-91
2023/08/23 12:30:55;;;;;;;4.07;2.92;;;29.30;71.60;;;;;;9664080;23;20234;-92
2023/08/23 12:34:41;;;;;;;4.18;2.72;;;29.40;71.10;;;;;;9665373;23;20153;-91
2023/08/23 12:38:27;;;;;;;4.50;3.08;;;29.40;70.00;;;;;;9664255;23;20203;-91
2023/08/23 12:42:12;;;;;;;7.43;2.83;;;29.40;71.70;;;;;;9664753;23;20552;-91
2023/08/23 12:45:58;;;;;;;5.97;2.97;;;29.30;72.10;;;;;;9664401;23;20235;-91
2023/08/23 12:49:44;;;;;;;5.00;2.75;;;29.30;71.70;;;;;;9663505;23;20220;-91
2023/08/23 12:53:29;;;;;;;5.63;2.83;;;29.40;71.80;;;;;;9664301;23;20154;-91
2023/08/23 12:57:15;;;;;;;5.53;3.00;;;29.20;72.20;;;;;;9664144;23;20178;-91
2023/08/23 13:01:01;;;;;;;4.25;3.17;;;29.20;72.40;;;;;;9663511;23;20597;-91
2023/08/23 13:04:46;;;;;;;3.45;2.75;;;29.30;71.80;;;;;;9664126;23;20241;-91
2023/08/23 13:08:42;;;;;;;6.63;3.30;;;29.40;72.50;;;;;;9663224;23;20182;-90
2023/08/23 13:12:28;;;;;;;4.78;3.20;;;29.40;72.00;;;;;;9664499;23;20468;-90
2023/08/23 13:16:13;;;;;;;4.22;2.72;;;29.40;71.50;;;;;;9663209;23;20193;-90
2023/08/23 13:19:59;;;;;;;3.70;2.55;;;29.50;71.70;;;;;;9663300;23;20154;-90
2023/08/23 13:23:45;;;;;;;4.40;2.95;;;29.50;71.00;;;;;;9663918;23;20157;-91
2023/08/23 13:27:30;;;;;;;4.80;3.40;;;29.60;71.00;;;;;;9666350;23;20200;-90
2023/08/23 13:31:16;;;;;;;3.00;2.70;;;29.70;69.10;;;;;;9671931;23;20169;-90
2023/08/23 13:35:03;;;;;;;3.80;2.97;;;29.50;69.00;;;;;;9671542;23;20166;-91
2023/08/23 13:38:48;;;;;;;7.35;2.70;;;29.60;70.70;;;;;;9665417;23;20204;-91
2023/08/23 13:42:34;;;;;;;3.20;2.53;;;29.60;69.00;;;;;;9667437;23;20236;-92
2023/08/23 13:46:21;;;;;;;5.25;2.75;;;29.50;69.10;;;;;;9665085;23;20177;-91
2023/08/23 13:50:09;;;;;;;4.07;2.80;;;29.60;70.00;;;;;;9663544;23;20177;-91
2023/08/23 13:53:54;;;;;;;3.80;2.75;;;29.60;70.70;;;;;;9663875;23;20177;-92
2023/08/23 13:57:40;;;;;;;5.22;3.03;;;29.70;69.00;;;;;;9663850;23;20173;-90
2023/08/23 14:01:26;;;;;;;4.10;2.70;;;29.80;67.60;;;;;;9663664;23;20161;-92
2023/08/23 14:05:11;;;;;;;5.30;3.25;;;29.60;67.90;;;;;;9662916;23;20543;-91
2023/08/23 14:08:57;;;;;;;4.40;2.80;;;29.60;67.50;;;;;;9663129;23;20177;-92
2023/08/23 14:12:43;;;;;;;3.80;2.85;;;29.70;71.10;;;;;;9663040;23;20160;-91
2023/08/23 14:16:28;;;;;;;5.05;2.90;;;29.70;72.10;;;;;;9663515;23;20667;-91
2023/08/23 14:20:14;;;;;;;4.00;2.88;;;29.80;69.90;;;;;;9663212;23;20161;-91
2023/08/23 14:24:00;;;;;;;4.15;2.65;;;29.80;68.40;;;;;;9663513;23;20161;-93
2023/08/23 14:27:46;;;;;;;7.40;2.45;;;29.70;68.20;;;;;;9662740;23;20188;-92
2023/08/23 14:31:31;;;;;;;4.55;2.30;;;29.60;68.70;;;;;;9663534;23;20523;-91
2023/08/23 14:35:18;;;;;;;6.28;2.30;;;29.70;68.80;;;;;;9663721;23;20153;-92
2023/08/23 14:39:03;;;;;;;3.88;2.45;;;29.70;69.70;;;;;;9663962;23;20161;-91
2023/08/23 14:43:05;;;;;;;2.72;2.45;;;29.90;69.10;;;;;;9663548;23;20158;-92
2023/08/23 14:46:52;;;;;;;3.85;2.50;;;29.80;69.20;;;;;;9663173;23;20184;-92
2023/08/23 14:50:39;;;;;;;3.50;2.35;;;29.80;67.80;;;;;;9663509;23;20181;-92
2023/08/23 14:54:25;;;;;;;3.58;2.85;;;29.80;70.20;;;;;;9663393;23;20174;-91
2023/08/23 14:58:11;;;;;;;2.38;2.15;;;29.80;67.40;;;;;;9664255;23;20173;-91
2023/08/23 15:01:59;;;;;;;4.45;2.45;;;29.80;68.20;;;;;;9663479;23;20168;-93
2023/08/23 15:05:44;;;;;;;4.18;2.40;;;29.90;68.50;;;;;;9664662;23;20173;-91
2023/08/23 15:09:30;;;;;;;3.55;2.40;;;30.00;67.30;;;;;;9663235;23;20690;-92
2023/08/23 15:13:16;;;;;;;3.88;2.40;;;29.80;67.30;;;;;;9663858;23;20181;-92
2023/08/23 15:17:02;;;;;;;5.47;2.70;;;29.90;66.80;;;;;;9663775;23;20189;-91
2023/08/23 15:20:48;;;;;;;7.88;2.40;;;29.70;67.70;;;;;;9663378;23;20512;-92
2023/08/23 15:24:34;;;;;;;2.67;2.17;;;29.70;65.40;;;;;;9665666;23;20162;-91
2023/08/23 15:28:20;;;;;;;6.85;2.83;;;29.70;67.10;;;;;;9667143;23;20211;-91
2023/08/23 15:32:05;;;;;;;3.42;2.25;;;29.90;67.10;;;;;;9666674;23;20157;-92
2023/08/23 15:36:20;;;;;;;3.75;2.85;;;29.90;66.80;;;;;;9666537;23;20173;-92
2023/08/23 15:40:06;;;;;;;5.38;2.25;;;30.10;66.70;;;;;;9665654;23;20152;-92
2023/08/23 15:43:52;;;;;;;3.97;2.67;;;30.10;65.80;;;;;;9666106;23;20635;-92
2023/08/23 15:47:54;;;;;;;5.85;2.20;;;30.00;66.80;;;;;;9666304;23;20519;-92
2023/08/23 15:51:46;;;;;;;7.28;2.60;;;29.90;65.70;;;;;;9667456;23;20176;-92
2023/08/23 15:55:39;;;;;;;5.50;2.70;;;29.80;64.50;;;;;;9667714;23;20180;-92
2023/08/23 15:59:29;;;;;;;2.35;2.15;;;29.70;65.50;;;;;;9669634;23;20153;-92
2023/08/23 16:03:14;;;;;;;4.35;2.45;;;29.70;66.50;;;;;;9667401;23;20177;-92
2023/08/23 16:07:12;;;;;;;5.45;2.58;;;29.70;65.40;;;;;;9665544;23;20207;-91
2023/08/23 16:11:00;;;;;;;6.63;2.78;;;29.60;65.00;;;;;;9667039;23;20177;-92
2023/08/23 16:14:46;;;;;;;4.07;2.40;;;29.70;65.50;;;;;;9666892;23;20594;-92
2023/08/23 16:18:32;;;;;;;2.45;2.17;;;29.60;64.20;;;;;;9666474;23;20193;-92
2023/08/23 16:22:18;;;;;;;3.25;2.42;;;29.50;66.60;;;;;;9667349;23;20164;-92
2023/08/23 16:26:04;;;;;;;3.58;2.42;;;29.60;67.60;;;;;;9677072;23;20237;-92
2023/08/23 16:29:49;;;;;;;7.80;2.40;;;29.80;67.70;;;;;;9687473;23;20185;-93
2023/08/23 16:33:37;;;;;;;6.05;2.45;;;29.70;65.70;;;;;;9687988;23;20154;-94
2023/08/23 16:37:25;;;;;;;2.50;2.30;;;29.60;64.50;;;;;;9687933;23;20183;-93
2023/08/23 16:41:11;;;;;;;2.92;2.58;;;29.30;63.70;;;;;;9685886;23;20456;-93
2023/08/23 16:44:59;;;;;;;7.15;2.47;;;29.20;63.30;;;;;;9685514;23;20169;-93
2023/08/23 16:48:45;;;;;;;3.53;2.45;;;29.20;64.50;;;;;;9697147;23;20239;-94
2023/08/23 16:52:31;;;;;;;4.47;2.70;;;29.20;64.90;;;;;;9691139;23;20153;-94
2023/08/23 16:56:16;;;;;;;4.18;2.40;;;29.30;66.10;;;;;;9696903;23;20233;-94
2023/08/23 17:00:07;;;;;;;4.60;2.47;;;29.40;66.10;;;;;;9705063;22;20179;-93
2023/08/23 17:03:54;;;;;;;6.90;2.95;;;29.40;64.50;;;;;;9695825;22;20149;-93
2023/08/23 17:07:40;;;;;;;3.38;2.60;;;29.30;64.70;;;;;;9689743;23;20184;-92
2023/08/23 17:11:26;;;;;;;4.95;2.33;;;29.10;65.30;;;;;;9690119;23;20189;-94
2023/08/23 17:15:12;;;;;;;4.65;2.30;;;29.20;65.80;;;;;;9686726;23;20221;-94
2023/08/23 17:18:58;;;;;;;4.13;2.63;;;29.20;66.60;;;;;;9687324;23;20173;-93
2023/08/23 17:22:43;;;;;;;2.97;2.28;;;29.20;65.70;;;;;;9686083;23;20172;-94
2023/08/23 17:26:29;;;;;;;3.95;2.28;;;29.10;65.50;;;;;;9686616;23;20177;-93
2023/08/23 17:30:16;;;;;;;3.38;2.42;;;29.00;65.90;;;;;;9690850;23;20192;-94
2023/08/23 17:34:05;;;;;;;3.35;2.10;;;28.90;65.30;;;;;;9690507;23;20142;-92
2023/08/23 17:37:51;;;;;;;4.32;2.05;;;28.80;66.00;;;;;;9674264;23;20512;-92
2023/08/23 17:41:36;;;;;;;2.80;2.15;;;28.90;67.80;;;;;;9677477;23;20164;-94
2023/08/23 17:45:22;;;;;;;3.33;2.20;;;29.00;66.80;;;;;;9677527;23;20179;-93
2023/08/23 17:49:10;;;;;;;3.40;2.00;;;29.10;68.20;;;;;;9672521;23;20181;-93
2023/08/23 17:52:57;;;;;;;3.88;2.40;;;29.10;68.40;;;;;;9693678;23;20153;-93
2023/08/23 17:56:44;;;;;;;4.03;2.80;;;29.00;68.70;;;;;;9695651;22;20212;-94
2023/08/23 18:00:30;;;;;;;2.88;2.13;;;29.00;68.90;;;;;;9686805;22;20211;-93
2023/08/23 18:04:15;;;;;;;5.25;2.50;;;29.00;69.30;;;;;;9697071;22;20225;-93
2023/08/23 18:08:01;;;;;;;2.95;2.28;;;28.90;69.80;;;;;;9690104;23;20223;-93
2023/08/23 18:11:47;;;;;;;3.33;1.95;;;28.90;69.50;;;;;;9687668;23;20582;-93
2023/08/23 18:15:34;;;;;;;5.03;2.40;;;28.90;71.00;;;;;;9672720;23;20173;-93
2023/08/23 18:19:19;;;;;;;6.65;2.30;;;28.70;71.90;;;;;;9670888;23;20159;-92
2023/08/23 18:23:08;;;;;;;4.18;2.13;;;28.60;73.70;;;;;;9669229;23;20157;-91
2023/08/23 18:26:54;;;;;;;4.75;2.10;;;28.40;74.50;;;;;;9668396;23;20258;-93
2023/08/23 18:30:44;;;;;;;6.82;2.65;;;28.20;74.80;;;;;;9668042;23;20181;-92
2023/08/23 18:34:34;;;;;;;5.05;2.10;;;28.00;75.20;;;;;;9666523;23;20145;-91
2023/08/23 18:38:20;;;;;;;4.88;1.75;;;27.90;75.90;;;;;;9663880;23;20632;-91
2023/08/23 18:42:06;;;;;;;2.30;2.10;;;27.80;76.40;;;;;;9665949;23;20570;-92
2023/08/23 18:46:17;;;;;;;4.22;1.92;;;27.80;76.90;;;;;;9664281;23;20177;-92
2023/08/23 18:50:14;;;;;;;2.53;2.03;;;27.70;76.30;;;;;;9665180;23;20489;-92
2023/08/23 18:54:01;;;;;;;4.78;2.05;;;27.60;76.80;;;;;;9665488;23;20195;-91
2023/08/23 18:57:54;;;;;;;5.43;2.05;;;27.50;77.20;;;;;;9670419;23;20208;-91
2023/08/23 19:01:40;;;;;;;2.95;2.15;;;27.40;77.40;;;;;;9676095;23;20145;-92
2023/08/23 19:05:49;;;;;;;3.17;1.90;;;27.30;77.50;;;;;;9666644;23;20168;-92
2023/08/23 19:09:34;;;;;;;5.53;2.35;;;27.30;78.30;;;;;;9666189;23;20177;-93
2023/08/23 19:13:20;;;;;;;3.28;2.28;;;27.20;78.20;;;;;;9666369;23;20192;-92
2023/08/23 19:17:06;;;;;;;2.90;2.22;;;27.20;78.20;;;;;;9667484;23;20193;-93
2023/08/23 19:20:52;;;;;;;4.20;2.17;;;27.10;78.20;;;;;;9667997;23;20188;-92
2023/08/23 19:24:47;;;;;;;4.60;2.13;;;27.00;78.30;;;;;;9667174;23;20162;-92
2023/08/23 19:28:33;;;;;;;4.75;2.40;;;27.00;78.50;;;;;;9666639;23;20199;-92
2023/08/23 19:32:22;;;;;;;4.15;2.00;;;26.90;78.70;;;;;;9666472;23;20239;-93
2023/08/23 19:36:08;;;;;;;6.93;2.40;;;26.90;78.60;;;;;;9666847;23;20181;-92
2023/08/23 19:39:54;;;;;;;2.42;2.22;;;26.90;78.90;;;;;;9666713;23;20248;-92